Time;durP1;ratioP1;P1;durP2;ratioP2;P2;SDS_P1;SDS_P2;PMS_P1;PMS_P2;Temp;Humidity;BMP_temperature;BMP_pressure;BME280_temperature;BME280_humidity;BME280_pressure;Samples;Min_cycle;Max_cycle;Signal;HPM_P1;HPM_P2
2022/01/26 00:06:43;;;;;;;13.13;11.03;;;;;;;20.94;27.54;99331.20;1773951;79;20978;-61
2022/01/26 00:09:11;;;;;;;13.93;11.30;;;;;;;20.96;27.95;99331.80;1772515;81;21801;-61
2022/01/26 00:11:38;;;;;;;12.13;9.88;;;;;;;20.90;28.70;99332.23;1766812;81;20936;-61
2022/01/26 00:14:12;;;;;;;12.20;9.73;;;;;;;21.00;28.12;99328.06;1768043;79;20930;-60
2022/01/26 00:16:40;;;;;;;13.62;9.88;;;;;;;21.02;27.97;99332.70;1770939;80;21595;-60
2022/01/26 00:19:10;;;;;;;11.50;9.48;;;;;;;20.99;28.05;99331.85;1764321;79;20883;-61
2022/01/26 00:21:56;;;;;;;12.37;9.68;;;;;;;20.90;28.48;99330.87;1765342;79;21807;-60
2022/01/26 00:24:23;;;;;;;14.45;10.32;;;;;;;20.79;28.44;99333.08;1767799;79;20884;-61
2022/01/26 00:27:05;;;;;;;12.33;10.48;;;;;;;20.86;28.40;99322.11;1767887;80;21097;-61
2022/01/26 00:29:17;;;;;;;14.35;11.45;;;;;;;20.90;28.22;99327.34;1770057;80;21429;-61
2022/01/26 00:42:58;;;;;;;20.57;13.22;;;;;;;20.81;27.85;99326.90;1775779;78;20923;-61
2022/01/26 00:45:26;;;;;;;21.33;13.18;;;;;;;20.90;27.56;99325.47;1778120;78;20915;-60
2022/01/26 00:47:51;;;;;;;21.17;13.22;;;;;;;20.90;27.56;99328.17;1778449;78;21750;-60
2022/01/26 00:50:18;;;;;;;21.50;13.78;;;;;;;20.83;27.59;99326.12;1783214;80;20839;-60
2022/01/26 00:52:51;;;;;;;19.15;12.68;;;;;;;21.00;27.37;99328.06;1791420;78;20924;-61
2022/01/26 00:55:17;;;;;;;16.95;12.25;;;;;;;21.11;27.17;99320.48;1789355;79;21029;-61
2022/01/26 00:57:44;;;;;;;20.12;12.07;;;;;;;21.13;27.19;99321.05;1792048;78;20925;-60
2022/01/26 01:00:18;;;;;;;15.63;11.12;;;;;;;21.11;27.17;99325.89;1768024;79;21263;-60
2022/01/26 01:02:44;;;;;;;14.75;10.10;;;;;;;21.12;27.14;99322.13;1778114;78;20936;-60
2022/01/26 01:05:58;;;;;;;13.05;9.33;;;;;;;21.09;27.14;99322.05;1772108;79;21029;-60
2022/01/26 01:07:44;;;;;;;11.65;8.33;;;;;;;21.04;27.07;99329.24;1754261;80;21036;-60
2022/01/26 01:10:14;;;;;;;11.12;8.70;;;;;;;21.08;27.01;99328.55;1790521;78;20993;-60
2022/01/26 01:12:43;;;;;;;9.15;7.45;;;;;;;21.04;26.92;99325.19;1786504;80;21556;-60
2022/01/26 01:15:08;;;;;;;11.63;7.65;;;;;;;21.05;26.93;99320.05;1772546;78;20871;-61
2022/01/26 01:17:41;;;;;;;8.38;7.42;;;;;;;21.10;26.87;99324.23;1780521;78;20962;-60
2022/01/26 01:20:30;;;;;;;8.25;7.33;;;;;;;21.10;26.82;99322.36;1789750;78;20888;-60
2022/01/26 01:22:52;;;;;;;8.38;7.25;;;;;;;21.15;26.76;99322.97;1787944;79;21061;-61
2022/01/26 01:30:48;;;;;;;7.97;6.35;;;;;;;21.25;26.79;99320.45;1773814;78;20880;-60
2022/01/26 01:33:14;;;;;;;6.50;5.67;;;;;;;21.23;26.73;99324.77;1789394;78;20994;-60
2022/01/26 01:35:39;;;;;;;6.37;5.72;;;;;;;21.23;26.69;99330.70;1789945;79;21433;-60
2022/01/26 01:38:14;;;;;;;6.92;6.22;;;;;;;21.31;26.54;99328.44;1791284;78;21948;-60
2022/01/26 01:40:39;;;;;;;6.35;5.60;;;;;;;21.15;26.60;99324.33;1774881;78;20962;-61
2022/01/26 01:43:06;;;;;;;6.78;6.08;;;;;;;21.16;26.57;99331.39;1782247;78;21500;-59
2022/01/26 01:45:36;;;;;;;8.08;7.28;;;;;;;21.13;26.66;99332.70;1791406;78;20973;-61
2022/01/26 01:48:04;;;;;;;8.25;7.45;;;;;;;21.19;26.56;99336.32;1790201;79;20986;-61
2022/01/26 01:50:36;;;;;;;7.67;6.95;;;;;;;21.26;26.51;99331.58;1792100;78;21162;-61
2022/01/26 01:53:01;;;;;;;6.47;5.85;;;;;;;21.31;26.48;99337.08;1759684;80;21039;-61
2022/01/26 01:55:29;;;;;;;6.87;6.25;;;;;;;21.32;26.51;99331.44;1776984;78;20932;-60
2022/01/26 01:57:56;;;;;;;7.65;6.95;;;;;;;21.28;26.56;99330.80;1786888;80;20907;-60
2022/01/26 02:00:24;;;;;;;6.75;6.05;;;;;;;21.34;26.58;99326.59;1790475;78;21034;-60
2022/01/26 02:02:50;;;;;;;6.60;5.97;;;;;;;21.40;26.63;99324.81;1780237;80;21123;-60
2022/01/26 02:05:18;;;;;;;6.42;5.83;;;;;;;21.43;26.44;99327.03;1790104;80;20954;-61
2022/01/26 02:07:45;;;;;;;5.42;4.92;;;;;;;21.38;26.66;99325.03;1790761;78;20978;-60
2022/01/26 02:10:12;;;;;;;6.17;5.58;;;;;;;21.44;26.64;99315.95;1790114;79;20914;-61
2022/01/26 02:12:44;;;;;;;6.15;5.55;;;;;;;21.48;26.56;99325.77;1790242;78;21018;-61
2022/01/26 02:15:15;;;;;;;5.40;4.90;;;;;;;21.43;26.61;99328.39;1781131;80;21161;-63
2022/01/26 02:53:13;;;;;;;4.92;4.42;;;;;;;21.41;26.05;99323.20;1790631;78;20908;-61
2022/01/26 02:55:48;;;;;;;7.83;6.50;;;;;;;21.44;25.97;99325.95;1787972;78;21158;-61
2022/01/26 03:00:55;;;;;;;7.50;6.78;;;;;;;21.29;26.06;99337.33;1790884;78;21473;-61
2022/01/26 03:03:18;;;;;;;6.83;6.22;;;;;;;21.36;26.01;99327.70;1788804;78;20977;-61
2022/01/26 03:05:51;;;;;;;7.30;5.60;;;;;;;21.40;25.95;99336.43;1790159;79;21095;-62
2022/01/26 03:08:10;;;;;;;5.60;5.10;;;;;;;21.39;25.98;99336.16;1789237;79;21158;-61
2022/01/26 03:10:55;;;;;;;7.10;6.45;;;;;;;21.38;25.98;99330.97;1789917;80;21401;-61
2022/01/26 03:13:23;;;;;;;7.50;6.80;;;;;;;21.43;25.92;99332.45;1788652;79;21021;-61
2022/01/26 03:15:52;;;;;;;6.12;5.53;;;;;;;21.43;25.88;99335.95;1790230;78;20938;-60
2022/01/26 03:18:49;;;;;;;5.70;5.20;;;;;;;21.37;25.88;99337.47;1769385;80;21642;-62
2022/01/26 03:21:01;;;;;;;4.12;3.72;;;;;;;21.26;25.96;99333.75;1776551;80;21061;-61
2022/01/26 03:34:11;;;;;;;6.28;5.78;;;;;;;21.21;26.01;99336.89;1782221;78;22107;-61
2022/01/26 03:37:04;;;;;;;5.80;5.20;;;;;;;21.21;25.95;99332.84;1789401;78;20888;-60
2022/01/26 03:39:09;;;;;;;7.25;6.55;;;;;;;21.28;25.88;99339.73;1784110;80;21539;-59
2022/01/26 03:44:06;;;;;;;8.75;7.97;;;;;;;21.45;25.64;99343.31;1789886;79;20978;-60
2022/01/26 03:46:32;;;;;;;11.05;10.03;;;;;;;21.38;25.68;99343.15;1790744;78;21323;-60
2022/01/26 03:49:00;;;;;;;14.05;12.65;;;;;;;21.30;25.85;99342.22;1781869;80;20999;-61
2022/01/26 03:51:27;;;;;;;11.80;10.70;;;;;;;21.37;25.74;99341.53;1760734;80;21423;-61
2022/01/26 03:53:53;;;;;;;10.90;9.90;;;;;;;21.36;25.70;99337.99;1779224;78;20986;-60
2022/01/26 03:56:19;;;;;;;12.20;11.00;;;;;;;21.42;25.71;99347.03;1790075;80;21044;-61
2022/01/26 03:58:46;;;;;;;10.18;9.28;;;;;;;21.43;25.67;99348.13;1790693;78;21129;-62
2022/01/26 04:01:13;;;;;;;10.60;9.60;;;;;;;21.44;25.65;99341.66;1790944;78;20982;-61
2022/01/26 04:03:39;;;;;;;11.28;10.20;;;;;;;21.44;25.60;99347.59;1790508;80;21414;-61
2022/01/26 04:06:05;;;;;;;11.03;9.93;;;;;;;21.40;25.62;99344.55;1790532;78;20903;-61
2022/01/26 04:08:34;;;;;;;9.93;8.93;;;;;;;21.54;25.52;99345.06;1788505;78;20969;-61
2022/01/26 04:11:23;;;;;;;9.00;8.10;;;;;;;21.72;25.37;99348.90;1780733;78;21553;-61
2022/01/26 04:13:34;;;;;;;8.85;8.05;;;;;;;21.68;25.39;99339.64;1787623;80;20970;-61
2022/01/26 04:16:00;;;;;;;12.07;10.30;;;;;;;21.55;25.53;99338.60;1790498;78;20924;-61
2022/01/26 04:18:33;;;;;;;11.63;10.53;;;;;;;21.46;25.52;99340.05;1785440;78;21406;-61
2022/01/26 04:21:00;;;;;;;11.33;10.23;;;;;;;21.50;25.45;99346.63;1759699;80;21001;-61
2022/01/26 04:23:33;;;;;;;10.13;8.68;;;;;;;21.49;25.47;99339.04;1773291;78;21119;-61
2022/01/26 04:25:53;;;;;;;7.62;6.90;;;;;;;21.48;25.51;99343.36;1772023;80;21533;-61
2022/01/26 04:28:29;;;;;;;7.47;6.80;;;;;;;21.49;25.49;99341.75;1782780;78;20998;-61
2022/01/26 04:30:50;;;;;;;7.80;7.00;;;;;;;21.53;25.53;99345.59;1777565;78;20947;-61
2022/01/26 04:33:17;;;;;;;9.35;8.15;;;;;;;21.57;25.53;99341.88;1790271;79;20966;-60
2022/01/26 04:35:46;;;;;;;9.50;8.60;;;;;;;21.58;25.47;99346.23;1786126;80;21134;-61
2022/01/26 04:38:24;;;;;;;9.75;8.75;;;;;;;21.78;25.20;99353.34;1782760;78;21480;-61
2022/01/26 04:41:25;;;;;;;10.20;9.20;;;;;;;21.83;25.15;99352.07;1789502;79;20911;-60
2022/01/26 04:43:20;;;;;;;8.45;7.72;;;;;;;21.78;25.20;99353.87;1778359;79;21035;-60
2022/01/26 04:45:43;;;;;;;6.97;6.37;;;;;;;21.61;25.28;99348.46;1773562;79;20951;-61
2022/01/26 04:48:09;;;;;;;9.43;8.55;;;;;;;21.46;25.44;99353.58;1761647;79;21722;-60
2022/01/26 04:50:36;;;;;;;15.60;14.10;;;;;;;21.51;25.47;99348.26;1774483;79;20982;-61
2022/01/26 04:53:02;;;;;;;19.32;17.42;;;;;;;21.54;25.46;99352.66;1773344;81;20955;-61
2022/01/26 04:55:29;;;;;;;21.97;19.62;;;;;;;21.56;25.48;99352.44;1773846;79;21453;-61
2022/01/26 04:57:55;;;;;;;18.67;16.87;;;;;;;21.62;25.45;99359.56;1772963;79;20950;-61
2022/01/26 05:00:21;;;;;;;16.65;15.08;;;;;;;21.64;25.34;99360.13;1773263;79;21063;-61
2022/01/26 05:02:47;;;;;;;15.05;13.68;;;;;;;21.60;25.41;99357.63;1773541;79;20970;-61
2022/01/26 05:05:14;;;;;;;13.22;12.10;;;;;;;21.60;25.41;99356.28;1773303;81;20920;-60
2022/01/26 05:07:41;;;;;;;14.07;12.78;;;;;;;21.56;25.44;99363.78;1773940;79;21520;-60
2022/01/26 05:10:08;;;;;;;10.60;9.30;;;;;;;21.56;25.44;99362.44;1763915;81;20996;-61
2022/01/26 05:12:36;;;;;;;10.68;9.68;;;;;;;21.75;25.16;99360.59;1772890;79;21784;-62
2022/01/26 05:15:04;;;;;;;13.40;12.10;;;;;;;21.64;30.17;99361.48;1773973;79;21480;-61
2022/01/26 05:17:32;;;;;;;13.65;12.40;;;;;;;21.85;25.80;99359.94;1772762;79;21469;-61
2022/01/26 05:20:00;;;;;;;15.13;13.72;;;;;;;21.84;25.53;99361.84;1765489;79;20974;-61
2022/01/26 05:22:29;;;;;;;15.70;14.25;;;;;;;21.85;25.42;99364.83;1769883;79;20935;-61
2022/01/26 05:24:55;;;;;;;13.58;12.28;;;;;;;21.90;25.32;99363.58;1773324;81;21778;-62
2022/01/26 05:27:21;;;;;;;12.45;11.25;;;;;;;22.04;25.10;99368.97;1773462;79;20919;-63
2022/01/26 05:29:47;;;;;;;12.82;11.63;;;;;;;22.00;25.04;99367.80;1773185;79;20927;-62
2022/01/26 05:32:15;;;;;;;12.35;11.22;;;;;;;21.94;25.07;99370.16;1772362;79;47265;-62
2022/01/26 05:34:41;;;;;;;12.03;10.82;;;;;;;21.75;25.11;99370.59;1766986;79;20967;-61
2022/01/26 05:37:07;;;;;;;9.95;9.05;;;;;;;21.49;25.43;99372.05;1773623;79;21914;-61
2022/01/26 05:39:37;;;;;;;10.05;9.15;;;;;;;21.41;25.52;99369.73;1772955;79;21722;-62
2022/01/26 05:42:06;;;;;;;9.30;8.50;;;;;;;21.32;25.68;99375.26;1774611;79;21473;-62
2022/01/26 05:44:32;;;;;;;8.30;7.50;;;;;;;21.30;25.63;99378.19;1782871;78;21496;-60
2022/01/26 05:46:59;;;;;;;7.67;6.37;;;;;;;21.37;25.53;99375.34;1790353;78;20902;-61
2022/01/26 05:49:26;;;;;;;4.67;4.25;;;;;;;21.25;25.58;99380.80;1775445;80;21140;-62
2022/01/26 05:51:53;;;;;;;4.05;3.65;;;;;;;21.18;25.61;99386.06;1760074;80;20978;-62
2022/01/26 05:54:19;;;;;;;4.10;3.50;;;;;;;21.11;25.64;99386.74;1760079;80;20982;-61
2022/01/26 05:56:47;;;;;;;4.37;3.47;;;;;;;21.15;29.86;99389.24;1760683;80;20976;-62
2022/01/26 05:59:20;;;;;;;3.60;3.30;;;;;;;21.17;27.34;99380.38;1777730;78;20975;-62
2022/01/26 06:01:48;;;;;;;3.90;3.33;;;;;;;21.11;26.53;99391.63;1790268;79;21802;-61
2022/01/26 06:04:14;;;;;;;4.25;3.95;;;;;;;21.08;26.21;99393.45;1790753;78;20919;-61
2022/01/26 06:06:41;;;;;;;4.92;4.50;;;;;;;21.15;26.11;99397.36;1767072;79;21486;-61
2022/01/26 06:09:07;;;;;;;7.08;6.37;;;;;;;21.09;26.10;99387.52;1783596;78;21139;-62
2022/01/26 06:11:34;;;;;;;8.58;7.10;;;;;;;21.11;26.07;99397.56;1790829;78;20918;-62
2022/01/26 06:14:00;;;;;;;7.03;6.53;;;;;;;21.12;26.00;99399.22;1791407;78;21829;-61
2022/01/26 06:16:28;;;;;;;6.75;6.25;;;;;;;21.12;25.93;99393.25;1790151;80;21457;-61
2022/01/26 06:18:54;;;;;;;5.80;5.30;;;;;;;21.08;25.96;99402.92;1790421;78;20919;-61
2022/01/26 06:21:21;;;;;;;5.72;5.22;;;;;;;21.08;25.92;99395.33;1790257;80;20983;-62
2022/01/26 06:23:47;;;;;;;5.00;4.60;;;;;;;21.23;25.70;99392.39;1790649;78;20976;-61
2022/01/26 06:26:13;;;;;;;4.60;4.20;;;;;;;21.11;25.93;99397.56;1790929;78;21143;-61
2022/01/26 06:28:40;;;;;;;5.22;4.72;;;;;;;21.07;25.95;99393.16;1791122;78;20911;-61
2022/01/26 06:31:10;;;;;;;5.10;4.70;;;;;;;21.07;25.89;99401.79;1789647;79;20974;-60
2022/01/26 06:33:35;;;;;;;5.60;5.10;;;;;;;21.06;25.73;99396.94;1790637;78;21577;-62
2022/01/26 06:36:03;;;;;;;5.47;4.97;;;;;;;21.02;26.04;99403.01;1791009;78;20950;-61
2022/01/26 06:38:29;;;;;;;5.35;4.85;;;;;;;21.03;26.01;99397.38;1789884;79;21104;-62
2022/01/26 06:40:57;;;;;;;3.42;3.12;;;;;;;21.02;25.88;99397.08;1790207;79;21437;-62
2022/01/26 06:43:27;;;;;;;3.22;2.70;;;;;;;21.03;25.76;99401.95;1790804;78;20939;-61
2022/01/26 06:45:59;;;;;;;4.90;4.30;;;;;;;20.93;25.82;99401.23;1786481;79;20879;-61
2022/01/26 06:51:05;;;;;;;4.70;4.30;;;;;;;21.09;25.72;99405.09;1788322;78;21154;-62
2022/01/26 06:53:31;;;;;;;5.28;4.72;;;;;;;21.26;25.52;99404.09;1788234;78;20925;-63
2022/01/26 06:55:58;;;;;;;5.28;4.78;;;;;;;21.21;25.53;99402.64;1779812;79;20967;-63
2022/01/26 06:58:24;;;;;;;5.55;5.03;;;;;;;21.18;25.54;99403.64;1779723;78;21053;-62
2022/01/26 07:00:50;;;;;;;5.28;4.78;;;;;;;21.15;25.53;99411.71;1779863;79;21097;-62
2022/01/26 07:03:17;;;;;;;4.33;3.92;;;;;;;21.18;25.45;99407.70;1788458;78;21107;-63
2022/01/26 07:05:45;;;;;;;4.17;3.77;;;;;;;21.17;25.43;99410.93;1785505;78;20917;-63
2022/01/26 07:08:14;;;;;;;3.83;3.42;;;;;;;21.14;25.45;99410.61;1764814;80;21037;-62
2022/01/26 07:10:44;;;;;;;3.30;3.00;;;;;;;21.16;25.39;99411.19;1766171;78;20950;-63
2022/01/26 07:13:10;;;;;;;3.77;3.42;;;;;;;21.23;25.30;99415.91;1772832;78;21146;-61
2022/01/26 07:21:23;;;;;;;4.50;4.10;;;;;;;21.28;25.29;99420.90;1785975;78;20985;-62
2022/01/26 07:23:43;;;;;;;4.55;4.15;;;;;;;21.28;25.31;99424.13;1775953;80;21043;-63
2022/01/26 07:26:10;;;;;;;4.50;4.10;;;;;;;21.28;25.41;99419.55;1787733;78;20868;-62
2022/01/26 07:28:38;;;;;;;5.65;4.83;;;;;;;21.37;25.42;99423.53;1783045;80;21207;-62
2022/01/26 07:31:05;;;;;;;6.15;5.25;;;;;;;22.02;24.75;99422.57;1784133;80;21077;-62
2022/01/26 07:33:32;;;;;;;5.85;4.33;;;;;;;22.18;24.51;99423.64;1787759;78;20986;-63
2022/01/26 07:35:59;;;;;;;4.90;4.35;;;;;;;22.16;24.40;99424.95;1787593;78;20995;-62
2022/01/26 07:38:26;;;;;;;5.17;4.15;;;;;;;22.22;24.19;99427.48;1787198;80;21397;-60
2022/01/26 07:40:53;;;;;;;4.20;3.80;;;;;;;22.18;24.16;99429.06;1779686;78;21109;-62
2022/01/26 07:43:20;;;;;;;6.10;3.95;;;;;;;22.18;24.21;99428.23;1785022;78;21025;-72
2022/01/26 07:45:46;;;;;;;4.00;3.60;;;;;;;22.20;24.28;99430.16;1768453;80;21233;-72
2022/01/26 07:48:13;;;;;;;5.35;3.85;;;;;;;22.21;24.23;99425.04;1779491;80;21000;-63
2022/01/26 07:50:40;;;;;;;3.55;2.85;;;;;;;21.79;24.61;99425.92;1785508;78;21491;-64
2022/01/26 07:53:13;;;;;;;3.52;3.15;;;;;;;21.75;24.50;99430.16;1776755;79;21130;-64
2022/01/26 07:55:35;;;;;;;3.92;3.47;;;;;;;21.73;24.55;99429.06;1772455;80;21077;-64
2022/01/26 07:58:02;;;;;;;9.30;5.90;;;;;;;21.81;24.52;99432.73;1773299;78;20974;-65
2022/01/26 08:00:28;;;;;;;5.10;3.67;;;;;;;21.94;24.46;99429.75;1775634;78;21061;-64
2022/01/26 08:02:54;;;;;;;4.08;3.67;;;;;;;22.05;24.13;99428.86;1770292;78;21441;-64
2022/01/26 08:05:21;;;;;;;5.72;3.67;;;;;;;22.09;23.97;99435.94;1736597;80;21162;-62
2022/01/26 08:07:48;;;;;;;9.83;4.60;;;;;;;22.15;23.81;99434.97;1719758;82;21066;-62
2022/01/26 08:10:14;;;;;;;4.58;3.45;;;;;;;22.23;23.72;99434.56;1713179;82;21544;-66
2022/01/26 08:12:41;;;;;;;3.80;3.10;;;;;;;22.40;23.57;99435.89;1734354;82;21038;-64
2022/01/26 08:15:08;;;;;;;3.37;2.75;;;;;;;22.48;23.26;99434.95;1720438;82;21014;-63
2022/01/26 08:17:36;;;;;;;2.95;2.67;;;;;;;22.49;23.13;99442.02;1721166;81;21030;-64
2022/01/26 08:20:07;;;;;;;3.02;2.72;;;;;;;22.42;23.14;99444.62;1723083;81;20994;-60
2022/01/26 08:22:34;;;;;;;3.08;2.77;;;;;;;22.46;23.62;99448.46;1722330;82;21038;-63
2022/01/26 08:25:01;;;;;;;3.05;2.75;;;;;;;22.53;23.96;99446.39;1719645;81;21072;-62
2022/01/26 08:27:32;;;;;;;3.33;2.65;;;;;;;22.62;24.71;99454.41;1735947;82;21050;-63
2022/01/26 08:30:04;;;;;;;3.45;3.15;;;;;;;22.47;24.68;99454.18;1737402;81;21164;-64
2022/01/26 08:32:23;;;;;;;3.22;2.90;;;;;;;22.48;24.21;99455.80;1739036;82;21003;-62
2022/01/26 08:34:50;;;;;;;3.15;2.85;;;;;;;22.49;23.95;99454.22;1735134;82;20916;-63
2022/01/26 08:37:16;;;;;;;3.80;3.40;;;;;;;22.50;24.14;99460.47;1742602;81;21073;-64
2022/01/26 08:39:43;;;;;;;4.25;3.60;;;;;;;22.49;24.15;99457.45;1746827;81;21583;-63
2022/01/26 08:42:09;;;;;;;3.20;2.90;;;;;;;22.41;24.12;99461.94;1746778;81;23268;-62
2022/01/26 08:44:35;;;;;;;3.45;3.15;;;;;;;22.34;24.10;99464.00;1744549;81;21637;-63
2022/01/26 08:47:05;;;;;;;3.22;2.58;;;;;;;22.39;24.05;99461.37;1728412;81;21055;-64
2022/01/26 08:49:33;;;;;;;3.52;3.22;;;;;;;22.52;23.83;99464.57;1721985;83;21452;-65
2022/01/26 08:52:00;;;;;;;4.00;3.60;;;;;;;22.73;23.72;99458.95;1747493;82;21304;-62
2022/01/26 08:54:27;;;;;;;4.20;3.25;;;;;;;22.90;23.63;99462.43;1735239;81;21176;-60
2022/01/26 08:56:54;;;;;;;3.22;2.70;;;;;;;22.98;23.49;99465.24;1747454;81;21505;-61
2022/01/26 08:59:23;;;;;;;5.00;3.40;;;;;;;23.12;23.06;99462.45;1731899;82;21021;-62
2022/01/26 09:01:49;;;;;;;5.03;3.70;;;;;;;23.03;23.02;99462.06;1735813;82;21024;-60
2022/01/26 09:04:16;;;;;;;5.33;3.80;;;;;;;22.99;22.94;99461.47;1746270;82;20895;-63
2022/01/26 09:06:55;;;;;;;4.87;3.45;;;;;;;23.04;22.84;99463.72;1737726;81;21165;-66
2022/01/26 09:09:12;;;;;;;4.58;3.05;;;;;;;23.10;22.64;99454.55;1727161;81;21008;-65
2022/01/26 09:11:40;;;;;;;3.87;2.92;;;;;;;;;;1729568;82;20906;-63
2022/01/26 09:14:08;;;;;;;3.12;2.50;;;;;;;23.42;22.44;99454.71;1747685;82;20951;-62
2022/01/26 09:16:35;;;;;;;3.83;3.08;;;;;;;23.58;22.15;99452.45;1747133;82;21074;-60
2022/01/26 09:19:11;;;;;;;3.12;2.83;;;;;;;23.64;21.96;99450.09;1747631;82;21162;-62
2022/01/26 09:21:32;;;;;;;3.37;3.08;;;;;;;23.69;21.84;99453.38;1745371;82;21007;-62
2022/01/26 09:23:58;;;;;;;3.17;2.90;;;;;;;23.76;21.66;99452.63;1723624;81;21012;-63
2022/01/26 09:26:25;;;;;;;2.98;2.77;;;;;;;23.86;21.51;99450.02;1719506;82;20906;-62
2022/01/26 09:28:51;;;;;;;4.30;3.90;;;;;;;23.84;21.52;99450.81;1746960;82;21564;-62
2022/01/26 09:31:18;;;;;;;5.60;4.35;;;;;;;23.86;21.30;99446.77;1747434;82;21798;-62
2022/01/26 09:33:44;;;;;;;4.50;4.10;;;;;;;23.92;21.40;99448.47;1735622;82;20989;-64
2022/01/26 09:36:11;;;;;;;5.22;4.53;;;;;;;23.92;21.46;99451.71;1745463;82;21758;-64
2022/01/26 09:38:39;;;;;;;4.45;4.05;;;;;;;24.00;21.53;99451.25;1746436;82;21026;-62
2022/01/26 09:41:05;;;;;;;5.10;4.50;;;;;;;24.14;21.56;99447.07;1746838;82;21595;-64
2022/01/26 09:43:32;;;;;;;4.10;3.70;;;;;;;24.25;21.41;99446.05;1743924;81;21129;-62
2022/01/26 09:45:58;;;;;;;4.72;4.33;;;;;;;24.20;21.31;99441.11;1738892;81;20951;-62
2022/01/26 09:48:24;;;;;;;5.40;4.90;;;;;;;24.19;21.22;99444.92;1747408;81;20971;-63
2022/01/26 09:50:56;;;;;;;5.33;4.80;;;;;;;24.45;20.88;99448.95;1746079;81;21062;-62
2022/01/26 09:53:22;;;;;;;4.60;3.62;;;;;;;24.35;20.96;99444.77;1732130;81;21010;-61
2022/01/26 09:55:48;;;;;;;4.35;3.20;;;;;;;24.22;20.95;99442.49;1746652;81;21052;-65
2022/01/26 09:58:15;;;;;;;3.80;3.50;;;;;;;24.16;20.90;99443.55;1747488;81;20962;-63
2022/01/26 10:00:42;;;;;;;5.00;4.25;;;;;;;24.12;20.80;99445.13;1746767;81;21034;-61
2022/01/26 10:03:09;;;;;;;5.20;4.62;;;;;;;24.15;20.77;99444.61;1745314;81;20982;-63
2022/01/26 10:05:43;;;;;;;6.25;5.50;;;;;;;24.12;20.83;99442.94;1747172;81;20994;-62
2022/01/26 10:19:06;;;;;;;5.60;4.08;;;;;;;24.06;20.89;99436.64;1747289;81;20998;-63
2022/01/26 10:21:32;;;;;;;4.17;3.70;;;;;;;24.00;20.83;99439.02;1747036;81;21137;-64
2022/01/26 10:24:10;;;;;;;3.77;3.08;;;;;;;24.05;20.79;99436.87;1747404;81;20880;-63
2022/01/26 10:26:38;;;;;;;6.50;3.20;;;;;;;24.25;20.76;99432.46;1747448;81;20993;-65
2022/01/26 10:29:06;;;;;;;3.70;2.77;;;;;;;24.54;20.51;99437.02;1742711;81;21635;-62
2022/01/26 10:31:36;;;;;;;3.10;2.60;;;;;;;24.87;20.02;99432.62;1747451;81;20947;-64
2022/01/26 10:34:10;;;;;;;4.80;2.90;;;;;;;24.81;19.82;99430.16;1747352;81;21120;-62
2022/01/26 10:36:46;;;;;;;3.10;2.30;;;;;;;24.75;19.73;99430.63;1743609;81;20959;-62
2022/01/26 10:39:36;;;;;;;2.95;2.30;;;;;;;24.77;19.68;99435.27;1742556;81;20911;-62
2022/01/26 10:42:01;;;;;;;3.33;2.62;;;;;;;24.65;19.66;99431.11;1743141;81;20999;-62
2022/01/26 10:44:40;;;;;;;2.77;2.17;;;;;;;24.68;19.69;99426.52;1744009;81;20947;-63
2022/01/26 10:47:06;;;;;;;4.70;2.45;;;;;;;24.69;19.45;99424.08;1733905;82;21989;-63
2022/01/26 10:52:21;;;;;;;3.45;2.75;;;;;;;24.61;19.30;99417.77;1721435;81;20939;-61
2022/01/26 10:54:48;;;;;;;2.95;2.08;;;;;;;24.43;19.32;99423.07;1716877;81;20947;-62
2022/01/26 10:57:14;;;;;;;2.92;1.95;;;;;;;24.34;19.26;99420.05;1725886;81;21588;-63
2022/01/26 10:59:44;;;;;;;2.67;1.70;;;;;;;24.26;19.17;99424.59;1722132;81;21109;-62
2022/01/26 11:02:12;;;;;;;2.22;1.50;;;;;;;24.23;19.16;99422.40;1722425;81;21558;-62
2022/01/26 11:04:41;;;;;;;2.30;1.80;;;;;;;24.29;19.06;99417.29;1717898;81;20944;-61
2022/01/26 11:07:11;;;;;;;2.52;1.92;;;;;;;24.26;19.04;99423.23;1718539;81;20999;-62
2022/01/26 11:09:47;;;;;;;3.10;1.95;;;;;;;24.32;18.75;99419.49;1718023;82;20955;-62
2022/01/26 11:12:17;;;;;;;2.50;2.00;;;;;;;24.28;18.65;99416.17;1734384;82;20931;-62
2022/01/26 11:14:50;;;;;;;2.22;1.85;;;;;;;24.16;18.75;99420.45;1710223;82;20962;-61
2022/01/26 11:17:29;;;;;;;4.37;2.62;;;;;;;24.15;18.68;99420.69;1733075;81;21057;-62
2022/01/26 11:19:57;;;;;;;4.70;2.60;;;;;;;24.01;18.82;99423.02;1726431;81;20864;-63
2022/01/26 11:22:29;;;;;;;3.35;3.00;;;;;;;23.96;18.90;99422.94;1734087;82;20999;-62
2022/01/26 11:24:55;;;;;;;4.83;3.20;;;;;;;23.98;18.95;99414.02;1707240;81;21537;-62
2022/01/26 11:27:21;;;;;;;4.65;3.35;;;;;;;23.95;18.97;99416.71;1728982;81;20904;-64
2022/01/26 11:29:53;;;;;;;7.53;3.52;;;;;;;24.05;19.05;99413.25;1706622;81;21524;-61
2022/01/26 11:34:53;;;;;;;3.50;2.50;;;;;;;24.04;19.13;99404.81;1734742;81;21543;-64
2022/01/26 11:37:47;;;;;;;4.00;2.85;;;;;;;24.23;19.03;99405.27;1732983;82;21176;-65
2022/01/26 11:45:35;;;;;;;4.85;2.20;;;;;;;24.29;18.70;99407.77;1735633;81;20104;-61
2022/01/26 11:48:12;;;;;;;2.80;2.12;;;;;;;24.40;18.68;99409.46;1735028;81;21018;-61
2022/01/26 11:50:42;;;;;;;6.03;2.90;;;;;;;24.40;18.64;99406.74;1704177;81;21130;-61
2022/01/26 11:53:16;;;;;;;4.40;3.27;;;;;;;24.34;18.73;99402.38;1739704;81;20999;-63
2022/01/26 11:55:49;;;;;;;3.90;2.72;;;;;;;24.41;18.78;99399.41;1739131;81;21438;-62
2022/01/26 11:58:20;;;;;;;3.50;2.80;;;;;;;24.34;18.83;99403.73;1738554;81;20932;-61
2022/01/26 12:01:09;;;;;;;3.02;2.70;;;;;;;24.24;18.72;99403.66;1735991;81;20955;-62
2022/01/26 12:03:31;;;;;;;4.10;2.33;;;;;;;24.16;18.82;99401.42;1710123;81;21188;-61
2022/01/26 12:05:59;;;;;;;2.62;2.12;;;;;;;24.04;18.86;99399.94;1735362;81;20939;-61
2022/01/26 12:08:36;;;;;;;3.62;2.50;;;;;;;24.00;18.73;99400.16;1738363;81;21723;-61
2022/01/26 12:11:04;;;;;;;6.83;3.10;;;;;;;23.90;18.62;99400.91;1739129;81;20947;-61
2022/01/26 12:13:32;;;;;;;3.92;2.67;;;;;;;23.72;18.82;99400.75;1739746;81;21402;-62
2022/01/26 12:16:06;;;;;;;4.30;3.90;;;;;;;23.61;18.96;99399.00;1739355;81;21145;-62
2022/01/26 12:38:03;;;;;;;10.82;6.00;;;;;;;23.19;19.17;99411.52;1678755;81;21043;-60
2022/01/26 12:43:47;;;;;;;13.08;8.18;;;;;;;23.15;19.26;99409.84;1738418;81;21748;-60
2022/01/26 12:46:25;;;;;;;15.35;10.78;;;;;;;23.04;19.40;99414.06;1733700;81;20965;-60
2022/01/26 12:49:01;;;;;;;15.63;11.30;;;;;;;23.03;19.45;99406.98;1727994;81;21506;-60
2022/01/26 12:51:28;;;;;;;15.95;11.15;;;;;;;22.98;19.48;99408.28;1729775;81;21451;-60
2022/01/26 12:54:02;;;;;;;15.28;10.65;;;;;;;22.94;19.52;99407.98;1733478;81;21556;-63
2022/01/26 12:56:31;;;;;;;9.45;7.03;;;;;;;22.97;19.51;99400.67;1733962;81;21196;-62
2022/01/26 12:59:04;;;;;;;8.08;6.67;;;;;;;22.98;19.49;99402.32;1735619;81;20867;-60
2022/01/26 13:01:31;;;;;;;11.80;8.78;;;;;;;22.97;19.29;99404.73;1733954;81;21067;-61
2022/01/26 13:04:00;;;;;;;8.58;6.15;;;;;;;22.90;19.27;99404.64;1731608;81;20870;-60
2022/01/26 13:06:34;;;;;;;7.35;4.45;;;;;;;22.72;19.38;99401.70;1731224;81;21039;-60
2022/01/26 13:09:05;;;;;;;6.15;4.17;;;;;;;22.51;19.46;99406.52;1722043;81;21536;-60
2022/01/26 13:11:34;;;;;;;5.78;3.87;;;;;;;22.55;19.50;99409.83;1727048;81;21005;-62
2022/01/26 13:14:19;;;;;;;8.33;5.70;;;;;;;22.52;19.48;99403.58;1732041;80;21507;-63
2022/01/26 13:20:20;;;;;;;6.00;5.40;;;;;;;22.44;19.10;99404.00;1780165;79;21251;-59
2022/01/26 13:25:12;;;;;;;8.38;5.95;;;;;;;22.31;19.09;99398.09;1781757;79;21552;-60
2022/01/26 13:27:44;;;;;;;6.70;5.97;;;;;;;22.30;19.05;99398.63;1781148;79;21401;-60
2022/01/26 13:30:20;;;;;;;7.37;6.28;;;;;;;22.31;19.02;99398.09;1779645;79;20961;-59
2022/01/26 13:33:26;;;;;;;7.35;6.25;;;;;;;22.35;18.93;99406.83;1780006;79;21500;-60
2022/01/26 13:35:58;;;;;;;6.25;5.33;;;;;;;22.58;18.79;99405.80;1777303;79;21152;-60
2022/01/26 13:41:21;;;;;;;5.70;3.92;;;;;;;22.57;18.64;99412.31;1777870;79;20977;-60
2022/01/26 13:59:20;;;;;;;4.37;2.80;;;;;;;22.45;18.62;99406.15;1774165;79;21074;-60
2022/01/26 14:01:45;;;;;;;4.80;3.00;;;;;;;22.35;18.71;99401.94;1773231;79;21141;-60
2022/01/26 14:04:12;;;;;;;3.95;3.40;;;;;;;22.35;18.72;99397.34;1774695;79;20915;-61
2022/01/26 14:06:38;;;;;;;4.87;3.17;;;;;;;22.35;18.67;99404.12;1773005;81;20927;-60
2022/01/26 14:09:05;;;;;;;5.37;3.75;;;;;;;22.31;18.69;99392.67;1773772;79;21054;-60